Terminal Aerodrome Forecast
Issued by NWS

Home | Current Version | Previous Version | Text Only | Print | Product List | Glossary Off
Versions: 1 2 3 4 5 6 7 8 9 10 11 12 13 14 15

000
FTUS43 KBIS 190600 AAA
TAFJMS
TAF AMD
KJMS 190649Z 1907/2006 17008KT 4SM BR OVC004
      TEMPO 1907/1911 2SM BR OVC003
     FM191300 17006KT P6SM FEW003 SCT100
      TEMPO 1913/1915 2SM BR SCT003
     FM191500 18006KT P6SM SCT100=

USA.gov is the U.S. government's official web portal to all federal, state and local government web resources and services.